sim
Sign-in with your pilot id or email,
or register
Callsign
Passwort

Schedule Details

Flight Number: OEO5013
Departure: Budapest Ferenc Liszt International Airport (LHBP) at 06:35
Arrival: Munich Airport (EDDM) at 08:00

Weather Information
Getting current METAR information for LHBP 211830Z 08003KT 060V120 CAVOK 18/08 Q1018 NOSIG
Getting current METAR information for EDDM 211820Z 10001KT CAVOK 15/13 Q1016 NOSIG

Schedule Frequency

Route Map